Oronogo, MO (64855)

12:58 PM CST on November 26, 2014 (GMT -0600)
Country Side Estates | Change Station
CLOSE
Current Station
Personal Weather Station
Location: Webb City, MO
Elevation: 968 ft
Nearby Weather Stations

Elev 968 ft 37.16 °N, 94.48 °W | Updated 13 minutes ago

Mostly Cloudy
Mostly Cloudy
47.7 °F
Feels Like 45 °F
N
6.8
Wind Variable Wind from NNE

Today
High -- | Low -- °F
--% Chance of Precip.
Yesterday
High -- | Low -- °F
Precip. -- in
7:08 AM 5:02 PM
Waxing Crescent, 22% visible
Pressure 30.06 in
Visibility 10.0 miles
Clouds Mostly Cloudy 5500 ft
Mostly Cloudy 6500 ft
Windchill 45 °F
Dew Point 29 °F
Humidity 48%
Rainfall 0.00 in
Snow Depth Not available.
UV 2 out of 12
Pollen 1.60 out of 12
Air Quality Not available.
Flu Activity Not available.
METAR KJLN 261753Z 31014G25KT 10SM BKN055 BKN065 08/M03 A3005 RMK AO2 PK WND 31026/1742 SLP177 60000 T00831028 10094 20033 51006

More Conditions Fewer Conditions

Pressure 30.06 in
Visibility 10.0 miles
Clouds Mostly Cloudy 5500 ft
Mostly Cloudy 6500 ft
Windchill 45 °F
Dew Point 29 °F
Humidity 48%
Rainfall 0.00 in
Snow Depth Not available.
UV 2 out of 12
Pollen 1.60 out of 12
Air Quality Not available.
Flu Activity Not available.
METAR KJLN 261753Z 31014G25KT 10SM BKN055 BKN065 08/M03 A3005 RMK AO2 PK WND 31026/1742 SLP177 60000 T00831028 10094 20033 51006

More Conditions Fewer Conditions

10-Day Weather Forecast

Almanac

Astronomy

Nov. 26, 2014 Rise Set
Actual Time
Civil Twilight
Nautical Twilight
Astronomical Twilight
Moon
Length of Visible Light
Length of Day
Tomorrow will be .
, % of the Moon is Illuminated

Today's Extremes

State Highs State Lows

Community

WunderPhotos

Upload Photos

1,773,827 photos uploaded!

WunderBlogs® & News

Nearby

Air Quality

  Air Quality AQ Index Pollutant
Not available.

Snow Depth

Station Depth Elevation

Earthquake Activity

City Distance Mag. Time & Date
Minimum magnitude displayed is 2.5.

Coastal Water Temperatures

Place Temperature

Nearby Weather Stations